createdAt,value
2022-08-24T00:01:43.179Z,7.50
2022-08-24T00:04:26.797Z,5.32
2022-08-24T00:07:13.800Z,6.10
2022-08-24T00:10:11.969Z,10.00
2022-08-24T00:12:55.013Z,6.47
2022-08-24T00:15:38.281Z,6.80
2022-08-24T00:18:21.337Z,5.85
2022-08-24T00:21:05.713Z,5.32
2022-08-24T00:23:50.133Z,5.57
2022-08-24T00:26:33.172Z,5.43
2022-08-24T00:29:17.378Z,5.03
2022-08-24T00:32:00.475Z,6.70
2022-08-24T00:34:58.117Z,5.28
2022-08-24T00:37:42.408Z,6.40
2022-08-24T00:40:33.873Z,9.68
2022-08-24T00:43:21.718Z,8.52
2022-08-24T00:46:14.432Z,9.07
2022-08-24T00:49:04.016Z,8.70
2022-08-24T00:51:55.629Z,6.18
2022-08-24T00:54:46.059Z,8.68
2022-08-24T00:57:34.702Z,8.27
2022-08-24T01:00:22.098Z,8.63
2022-08-24T01:03:07.014Z,8.63
2022-08-24T01:08:33.055Z,7.07
2022-08-24T01:11:20.730Z,6.50
2022-08-24T01:14:06.918Z,5.35
2022-08-24T01:17:07.406Z,7.78
2022-08-24T01:19:55.400Z,8.90
2022-08-24T01:22:51.309Z,6.15
2022-08-24T01:25:37.437Z,6.05
2022-08-24T01:28:27.188Z,5.47
2022-08-24T01:31:11.441Z,4.18
2022-08-24T01:33:56.757Z,5.63
2022-08-24T01:36:43.206Z,6.53
2022-08-24T01:39:30.134Z,5.03
2022-08-24T01:42:16.619Z,4.03
2022-08-24T01:44:59.978Z,4.60
2022-08-24T01:47:43.074Z,3.38
2022-08-24T01:50:26.807Z,3.20
2022-08-24T01:53:10.331Z,3.55
2022-08-24T01:55:53.562Z,3.83
2022-08-24T01:58:43.802Z,4.32
2022-08-24T02:01:30.080Z,6.47
2022-08-24T02:04:16.559Z,4.30
2022-08-24T02:07:03.083Z,4.82
2022-08-24T02:09:48.287Z,3.90
2022-08-24T02:12:33.049Z,3.55
2022-08-24T02:15:17.892Z,5.53
2022-08-24T02:18:01.581Z,5.63
2022-08-24T02:20:46.050Z,4.20
2022-08-24T02:23:29.801Z,4.80
2022-08-24T02:26:13.483Z,4.47
2022-08-24T02:28:56.797Z,4.20
2022-08-24T02:31:43.762Z,4.95
2022-08-24T02:34:27.626Z,4.20
2022-08-24T02:37:10.993Z,5.38
2022-08-24T02:39:54.193Z,4.07
2022-08-24T02:42:39.592Z,5.38
2022-08-24T02:45:23.958Z,5.45
2022-08-24T02:48:08.620Z,4.37
2022-08-24T02:50:53.279Z,3.67
2022-08-24T02:53:38.680Z,5.00
2022-08-24T02:56:21.928Z,4.68
2022-08-24T02:59:05.177Z,6.38
2022-08-24T03:01:49.863Z,4.45
2022-08-24T03:04:36.136Z,4.45
2022-08-24T03:07:20.807Z,3.70
2022-08-24T03:10:08.092Z,3.80
2022-08-24T03:15:35.943Z,3.38
2022-08-24T03:18:19.373Z,2.92
2022-08-24T03:21:10.401Z,2.17
2022-08-24T03:23:58.448Z,3.20
2022-08-24T03:26:44.050Z,2.63
2022-08-24T03:29:28.870Z,1.80
2022-08-24T03:32:18.946Z,2.47
2022-08-24T03:35:02.333Z,3.05
2022-08-24T03:37:47.881Z,3.47
2022-08-24T03:40:33.446Z,3.20
2022-08-24T03:43:31.503Z,2.83
2022-08-24T03:46:16.836Z,1.90
2022-08-24T03:49:00.485Z,2.50
2022-08-24T03:51:44.761Z,1.30
2022-08-24T03:54:29.292Z,1.60
2022-08-24T03:57:13.774Z,4.05
2022-08-24T03:59:57.042Z,3.90
2022-08-24T04:02:40.469Z,1.90
2022-08-24T04:05:24.914Z,2.00
2022-08-24T04:08:08.232Z,2.20
2022-08-24T04:10:54.254Z,1.70
2022-08-24T04:13:37.289Z,2.30
2022-08-24T04:16:22.059Z,2.20
2022-08-24T04:19:12.963Z,1.90
2022-08-24T04:21:59.046Z,3.67
2022-08-24T04:24:42.234Z,3.67
2022-08-24T04:27:26.805Z,3.03
2022-08-24T04:30:14.154Z,2.33
2022-08-24T04:33:16.091Z,4.15
2022-08-24T04:36:01.043Z,2.65
2022-08-24T04:38:47.826Z,2.45
2022-08-24T04:41:48.590Z,3.25
2022-08-24T04:44:35.679Z,1.75
2022-08-24T04:47:18.860Z,3.45
2022-08-24T04:50:02.122Z,2.47
2022-08-24T04:52:46.327Z,2.15
2022-08-24T04:55:32.819Z,1.92
2022-08-24T04:58:18.130Z,5.45
2022-08-24T05:01:03.315Z,1.85
2022-08-24T05:03:47.867Z,3.08
2022-08-24T05:06:33.927Z,1.67
2022-08-24T05:09:17.209Z,1.50
2022-08-24T05:12:00.281Z,1.70
2022-08-24T05:14:45.975Z,2.42
2022-08-24T05:17:30.841Z,1.60
2022-08-24T05:20:14.348Z,1.40
2022-08-24T05:23:01.037Z,1.27
2022-08-24T05:25:48.002Z,1.98
2022-08-24T05:28:31.340Z,2.50
2022-08-24T05:31:17.557Z,1.92
2022-08-24T05:34:02.971Z,2.60
2022-08-24T05:36:47.807Z,1.95
2022-08-24T05:39:41.674Z,1.73
2022-08-24T05:42:25.669Z,1.88
2022-08-24T05:45:10.566Z,1.77
2022-08-24T05:47:53.611Z,2.25
2022-08-24T05:50:59.253Z,3.83
2022-08-24T05:53:46.704Z,4.47
2022-08-24T05:56:32.135Z,2.30
2022-08-24T05:59:18.052Z,1.83
2022-08-24T06:02:02.161Z,2.58
2022-08-24T06:04:46.006Z,2.13
2022-08-24T06:07:30.492Z,1.60
2022-08-24T06:10:35.245Z,1.77
2022-08-24T06:13:17.771Z,2.00
2022-08-24T06:16:20.939Z,2.40
2022-08-24T06:19:05.020Z,2.92
2022-08-24T06:21:52.369Z,2.00
2022-08-24T06:24:55.638Z,2.22
2022-08-24T06:27:38.780Z,2.50
2022-08-24T06:30:21.989Z,2.42
2022-08-24T06:33:18.754Z,1.90
2022-08-24T06:36:05.357Z,1.88
2022-08-24T06:38:51.190Z,4.93
2022-08-24T06:41:36.737Z,2.03
2022-08-24T06:44:25.235Z,3.03
2022-08-24T06:47:16.959Z,2.38
2022-08-24T06:50:00.553Z,2.80
2022-08-24T06:52:45.139Z,2.47
2022-08-24T06:55:29.891Z,2.50
2022-08-24T06:58:14.795Z,2.00
2022-08-24T07:00:58.579Z,3.15
2022-08-24T07:03:44.066Z,1.88
2022-08-24T07:06:55.628Z,2.30
2022-08-24T07:09:38.760Z,1.90
2022-08-24T07:12:21.942Z,2.97
2022-08-24T07:18:09.997Z,1.75
2022-08-24T07:20:56.450Z,1.90
2022-08-24T07:23:43.680Z,1.88
2022-08-24T07:26:31.445Z,2.33
2022-08-24T07:29:45.892Z,4.32
2022-08-24T07:32:22.134Z,2.13
2022-08-24T07:35:07.851Z,2.72
2022-08-24T07:37:51.102Z,3.42
2022-08-24T07:41:01.717Z,4.28
2022-08-24T07:43:41.804Z,4.45
2022-08-24T07:46:26.354Z,4.25
2022-08-24T07:49:31.562Z,2.65
2022-08-24T07:52:17.467Z,2.95
2022-08-24T07:55:01.845Z,3.15
2022-08-24T07:57:46.421Z,2.07
2022-08-24T08:00:29.637Z,2.20
2022-08-24T08:03:17.094Z,4.07
2022-08-24T08:06:12.562Z,3.60
2022-08-24T08:08:59.725Z,3.65
2022-08-24T08:11:42.881Z,5.07
2022-08-24T08:14:26.013Z,2.28
2022-08-24T08:17:09.942Z,2.23
2022-08-24T08:19:53.076Z,3.78
2022-08-24T08:22:55.106Z,2.17
2022-08-24T08:25:58.731Z,2.80
2022-08-24T08:28:55.185Z,1.85
2022-08-24T08:31:38.844Z,2.08
2022-08-24T08:34:22.118Z,1.60
2022-08-24T08:37:05.666Z,2.20
2022-08-24T08:39:50.630Z,1.80
2022-08-24T08:42:53.235Z,1.60
2022-08-24T08:46:02.885Z,1.95
2022-08-24T08:49:35.555Z,1.65
2022-08-24T08:52:34.182Z,1.58
2022-08-24T08:55:29.382Z,1.88
2022-08-24T08:58:30.550Z,2.28
2022-08-24T09:01:25.489Z,1.58
2022-08-24T09:04:52.981Z,1.50
2022-08-24T09:07:48.242Z,1.95
2022-08-24T09:10:55.613Z,1.95
2022-08-24T09:13:58.885Z,3.00
2022-08-24T09:17:10.846Z,1.63
2022-08-24T09:20:13.702Z,2.55
2022-08-24T09:23:10.195Z,2.20
2022-08-24T09:26:03.477Z,1.77
2022-08-24T09:28:51.731Z,3.35
2022-08-24T09:32:00.451Z,1.92
2022-08-24T09:34:57.135Z,2.35
2022-08-24T09:37:59.154Z,2.65
2022-08-24T09:41:15.931Z,2.55
2022-08-24T09:44:21.609Z,1.73
2022-08-24T09:47:22.779Z,1.73
2022-08-24T09:50:43.990Z,6.97
2022-08-24T09:54:06.136Z,1.83
2022-08-24T09:57:15.482Z,1.85
2022-08-24T10:00:13.476Z,2.67
2022-08-24T10:03:03.976Z,2.20
2022-08-24T10:06:12.051Z,2.25
2022-08-24T10:09:30.350Z,2.40
2022-08-24T10:12:23.906Z,2.50
2022-08-24T10:15:09.745Z,1.83
2022-08-24T10:18:09.639Z,2.28
2022-08-24T10:21:10.092Z,2.28
2022-08-24T10:24:14.432Z,2.90
2022-08-24T10:27:30.142Z,4.15
2022-08-24T10:30:50.393Z,2.08
2022-08-24T10:33:45.503Z,2.72
2022-08-24T10:39:54.857Z,2.20
2022-08-24T10:43:19.423Z,2.88
2022-08-24T10:46:49.200Z,2.33
2022-08-24T10:50:05.814Z,1.88
2022-08-24T10:53:13.173Z,2.83
2022-08-24T10:56:08.152Z,2.40
2022-08-24T11:01:38.271Z,2.53
2022-08-24T11:04:29.562Z,2.17
2022-08-24T11:07:19.168Z,3.38
2022-08-24T11:10:07.080Z,2.67
2022-08-24T11:12:50.201Z,2.35
2022-08-24T11:15:48.775Z,2.45
2022-08-24T11:18:48.522Z,2.28
2022-08-24T11:21:40.322Z,2.28
2022-08-24T11:24:40.441Z,2.50
2022-08-24T11:27:31.943Z,1.98
2022-08-24T11:30:23.752Z,2.50
2022-08-24T11:33:24.780Z,2.20
2022-08-24T11:36:20.877Z,2.60
2022-08-24T11:39:21.140Z,2.22
2022-08-24T11:42:16.742Z,2.38
2022-08-24T11:45:11.308Z,3.65
2022-08-24T11:48:07.052Z,2.25
2022-08-24T11:51:02.795Z,2.15
2022-08-24T11:54:11.123Z,2.55
2022-08-24T11:57:09.619Z,2.38
2022-08-24T12:00:00.037Z,2.35
2022-08-24T12:02:55.498Z,2.08
2022-08-24T12:05:45.721Z,2.05
2022-08-24T12:08:36.162Z,2.67
2022-08-24T12:11:33.147Z,2.67
2022-08-24T12:14:23.487Z,2.53
2022-08-24T12:17:16.328Z,2.80
2022-08-24T12:20:05.093Z,2.60
2022-08-24T12:22:49.775Z,2.30
2022-08-24T12:28:40.033Z,3.28
2022-08-24T12:31:38.868Z,3.05
2022-08-24T12:34:28.437Z,3.55
2022-08-24T12:37:20.020Z,4.93
2022-08-24T12:40:11.161Z,3.08
2022-08-24T12:42:57.735Z,2.38
2022-08-24T12:45:40.819Z,2.50
2022-08-24T12:48:30.414Z,2.17
2022-08-24T12:51:23.466Z,2.97
2022-08-24T12:54:33.340Z,2.15
2022-08-24T12:57:36.071Z,2.33
2022-08-24T13:00:23.687Z,2.67
2022-08-24T13:03:10.378Z,2.45
2022-08-24T13:05:59.263Z,2.42
2022-08-24T13:08:46.069Z,3.15
2022-08-24T13:11:34.375Z,2.67
2022-08-24T13:14:21.613Z,2.42
2022-08-24T13:17:14.369Z,2.25
2022-08-24T13:20:21.436Z,2.00
2022-08-24T13:23:15.921Z,2.35
2022-08-24T13:26:00.157Z,2.13
2022-08-24T13:28:48.237Z,3.28
2022-08-24T13:31:34.511Z,2.70
2022-08-24T13:34:39.015Z,2.05
2022-08-24T13:37:29.762Z,2.25
2022-08-24T13:40:19.090Z,2.45
2022-08-24T13:43:17.571Z,2.70
2022-08-24T13:46:16.386Z,1.98
2022-08-24T13:49:03.703Z,2.15
2022-08-24T13:51:53.332Z,2.78
2022-08-24T13:54:45.361Z,2.20
2022-08-24T13:57:42.183Z,2.15
2022-08-24T14:00:42.795Z,3.13
2022-08-24T14:03:50.944Z,1.98
2022-08-24T14:06:41.402Z,3.13
2022-08-24T14:09:41.295Z,2.13
2022-08-24T14:12:44.201Z,1.90
2022-08-24T14:15:45.691Z,3.22
2022-08-24T14:18:43.807Z,2.80
2022-08-24T14:21:38.654Z,2.17
2022-08-24T14:24:29.011Z,2.30
2022-08-24T14:27:38.223Z,3.05
2022-08-24T14:30:46.809Z,3.80
2022-08-24T14:33:36.482Z,2.58
2022-08-24T14:36:25.661Z,2.50
2022-08-24T14:39:20.161Z,2.75
2022-08-24T14:42:16.758Z,3.00
2022-08-24T14:45:07.069Z,4.15
2022-08-24T14:48:05.594Z,2.83
2022-08-24T14:50:56.467Z,3.35
2022-08-24T14:53:57.189Z,2.60
2022-08-24T14:56:57.292Z,3.38
2022-08-24T14:59:53.826Z,2.85
2022-08-24T15:03:13.347Z,3.28
2022-08-24T15:06:28.351Z,3.00
2022-08-24T15:09:22.398Z,3.08
2022-08-24T15:12:21.225Z,3.72
2022-08-24T15:15:12.221Z,3.50
2022-08-24T15:18:01.231Z,2.75
2022-08-24T15:21:00.980Z,4.50
2022-08-24T15:24:00.561Z,5.00
2022-08-24T15:27:03.723Z,6.03
2022-08-24T15:29:50.402Z,3.38
2022-08-24T15:32:44.999Z,3.40
2022-08-24T15:35:30.289Z,4.28
2022-08-24T15:38:22.898Z,2.90
2022-08-24T15:41:08.735Z,2.72
2022-08-24T15:43:59.790Z,4.85
2022-08-24T15:46:48.241Z,4.40
2022-08-24T15:49:35.813Z,2.90
2022-08-24T15:52:51.761Z,3.58
2022-08-24T15:55:38.963Z,3.17
2022-08-24T15:58:31.611Z,3.00
2022-08-24T16:01:46.636Z,2.65
2022-08-24T16:04:46.581Z,3.13
2022-08-24T16:07:35.542Z,3.42
2022-08-24T16:10:30.577Z,4.50
2022-08-24T16:16:05.171Z,4.82
2022-08-24T16:18:53.442Z,3.80
2022-08-24T16:21:39.288Z,4.28
2022-08-24T16:24:30.712Z,3.42
2022-08-24T16:27:17.563Z,3.95
2022-08-24T16:30:00.687Z,5.22
2022-08-24T16:32:55.861Z,5.00
2022-08-24T16:35:40.890Z,3.47
2022-08-24T16:38:24.483Z,4.30
2022-08-24T16:41:11.524Z,3.85
2022-08-24T16:43:54.638Z,4.32
2022-08-24T16:46:38.392Z,4.65
2022-08-24T16:49:21.557Z,3.42
2022-08-24T16:52:06.183Z,3.63
2022-08-24T16:57:36.393Z,3.80
2022-08-24T17:00:21.975Z,4.55
2022-08-24T17:03:05.258Z,6.97
2022-08-24T17:05:48.362Z,7.68
2022-08-24T17:08:33.409Z,4.88
2022-08-24T17:11:16.839Z,4.03
2022-08-24T17:13:59.925Z,4.07
2022-08-24T17:16:43.513Z,4.22
2022-08-24T17:19:30.227Z,3.67
2022-08-24T17:22:16.388Z,2.85
2022-08-24T17:25:01.107Z,3.47
2022-08-24T17:27:44.505Z,4.53
2022-08-24T17:30:30.985Z,3.17
2022-08-24T17:33:15.257Z,3.88
2022-08-24T17:35:58.500Z,3.30
2022-08-24T17:38:50.340Z,4.35
2022-08-24T17:41:37.923Z,3.28
2022-08-24T17:44:25.044Z,4.32
2022-08-24T17:47:08.398Z,6.70
2022-08-24T17:49:51.436Z,3.67
2022-08-24T17:52:34.508Z,3.95
2022-08-24T17:55:25.065Z,4.00
2022-08-24T17:58:09.879Z,5.22
2022-08-24T18:00:53.067Z,4.28
2022-08-24T18:03:36.224Z,5.10
2022-08-24T18:06:19.712Z,5.07
2022-08-24T18:09:07.087Z,6.10
2022-08-24T18:11:50.135Z,4.03
2022-08-24T18:14:35.449Z,5.78
2022-08-24T18:17:22.847Z,6.72
2022-08-24T18:20:09.750Z,3.72
2022-08-24T18:22:54.330Z,7.25
2022-08-24T18:25:43.790Z,3.95
2022-08-24T18:28:26.932Z,4.85
2022-08-24T18:31:11.782Z,4.65
2022-08-24T18:33:58.342Z,6.25
2022-08-24T18:36:41.330Z,6.82
2022-08-24T18:39:24.450Z,8.75
2022-08-24T18:42:09.370Z,7.55
2022-08-24T18:44:52.486Z,11.15
2022-08-24T18:47:37.131Z,7.35
2022-08-24T18:53:03.514Z,6.57
2022-08-24T18:55:48.029Z,7.22
2022-08-24T18:58:31.078Z,5.22
2022-08-24T19:01:14.584Z,6.20
2022-08-24T19:03:59.625Z,6.40
2022-08-24T19:06:42.799Z,4.88
2022-08-24T19:09:25.904Z,4.93
2022-08-24T19:12:09.944Z,6.28
2022-08-24T19:14:57.172Z,4.97
2022-08-24T19:17:41.672Z,7.28
2022-08-24T19:20:27.144Z,8.18
2022-08-24T19:23:14.865Z,7.30
2022-08-24T19:25:58.779Z,7.07
2022-08-24T19:28:41.879Z,6.80
2022-08-24T19:31:27.565Z,6.57
2022-08-24T19:34:11.629Z,7.60
2022-08-24T19:36:58.095Z,5.97
2022-08-24T19:39:44.305Z,7.45
2022-08-24T19:45:32.993Z,7.85
2022-08-24T19:48:18.998Z,8.98
2022-08-24T19:51:04.155Z,8.98
2022-08-24T19:53:48.527Z,9.20
2022-08-24T19:56:31.575Z,8.55
2022-08-24T19:59:21.334Z,7.30
2022-08-24T20:02:04.466Z,10.23
2022-08-24T20:04:47.552Z,12.30
2022-08-24T20:07:30.743Z,9.80
2022-08-24T20:10:16.609Z,8.63
2022-08-24T20:13:00.102Z,9.63
2022-08-24T20:15:43.718Z,6.65
2022-08-24T20:18:32.440Z,6.93
2022-08-24T20:21:16.034Z,6.88
2022-08-24T20:24:00.466Z,7.05
2022-08-24T20:26:46.555Z,5.78
2022-08-24T20:29:29.627Z,7.00
2022-08-24T20:32:12.667Z,7.05
2022-08-24T20:34:55.759Z,7.28
2022-08-24T20:37:41.968Z,6.93
2022-08-24T20:40:26.985Z,8.73
2022-08-24T20:43:12.841Z,8.93
2022-08-24T20:45:56.822Z,7.95
2022-08-24T20:48:43.147Z,8.27
2022-08-24T20:51:26.671Z,5.68
2022-08-24T20:54:09.837Z,6.07
2022-08-24T20:56:53.291Z,4.95
2022-08-24T20:59:37.750Z,5.07
2022-08-24T21:02:21.411Z,4.53
2022-08-24T21:05:05.122Z,5.18
2022-08-24T21:07:49.743Z,7.50
2022-08-24T21:10:32.849Z,5.68
2022-08-24T21:13:15.869Z,5.30
2022-08-24T21:16:00.873Z,6.43
2022-08-24T21:18:44.218Z,6.43
2022-08-24T21:21:27.933Z,6.72
2022-08-24T21:24:11.882Z,6.05
2022-08-24T21:26:55.377Z,5.53
2022-08-24T21:29:38.397Z,4.78
2022-08-24T21:32:40.351Z,6.38
2022-08-24T21:35:23.460Z,5.03
2022-08-24T21:38:07.794Z,4.60
2022-08-24T21:40:51.318Z,6.00
2022-08-24T21:43:34.434Z,6.25
2022-08-24T21:46:18.340Z,7.00
2022-08-24T21:49:03.622Z,5.45
2022-08-24T21:51:46.692Z,6.18
2022-08-24T21:54:29.838Z,6.55
2022-08-24T21:57:13.211Z,7.40
2022-08-24T21:59:56.285Z,6.82
2022-08-24T22:02:39.423Z,6.65
2022-08-24T22:05:23.859Z,6.53
2022-08-24T22:08:06.985Z,5.82
2022-08-24T22:10:50.264Z,5.50
2022-08-24T22:13:34.156Z,6.38
2022-08-24T22:16:17.456Z,4.80
2022-08-24T22:19:01.441Z,6.60
2022-08-24T22:21:48.096Z,6.00
2022-08-24T22:24:31.220Z,5.70
2022-08-24T22:27:14.316Z,6.43
2022-08-24T22:29:58.841Z,6.07
2022-08-24T22:32:41.905Z,7.70
2022-08-24T22:35:25.183Z,8.20
2022-08-24T22:38:09.940Z,8.70
2022-08-24T22:43:55.841Z,5.70
2022-08-24T22:46:39.361Z,6.55
2022-08-24T22:49:25.170Z,8.88
2022-08-24T22:52:10.023Z,7.35
2022-08-24T22:54:56.319Z,7.30
2022-08-24T22:57:39.367Z,7.40
2022-08-24T23:00:23.295Z,7.05
2022-08-24T23:03:06.870Z,7.82
2022-08-24T23:05:50.030Z,7.07
2022-08-24T23:08:33.132Z,7.45
2022-08-24T23:11:19.244Z,9.15
2022-08-24T23:14:03.419Z,8.68
2022-08-24T23:16:48.771Z,9.10
2022-08-24T23:19:49.877Z,7.68
2022-08-24T23:22:35.895Z,8.63
2022-08-24T23:25:19.596Z,7.57
2022-08-24T23:28:04.751Z,6.78
2022-08-24T23:30:47.900Z,7.70
2022-08-24T23:33:31.024Z,9.38
2022-08-24T23:36:24.894Z,7.93
2022-08-24T23:39:09.800Z,7.00
2022-08-24T23:41:53.546Z,8.68
2022-08-24T23:44:39.148Z,8.20
2022-08-24T23:47:22.162Z,9.95
2022-08-24T23:50:06.700Z,7.18
2022-08-24T23:52:54.261Z,8.88
2022-08-24T23:55:37.289Z,8.63
2022-08-24T23:58:21.017Z,8.20
